Time;durP1;ratioP1;P1;durP2;ratioP2;P2;SDS_P1;SDS_P2;PMS_P1;PMS_P2;Temp;Humidity;BMP_temperature;BMP_pressure;BME280_temperature;BME280_humidity;BME280_pressure;Samples;Min_cycle;Max_cycle;Signal;HPM_P1;HPM_P2
2022/03/18 00:00:34;;;;;;;24.45;16.33;;;;;;;;;;6220760;23;20092;-94
2022/03/18 00:03:01;;;;;;;26.58;15.63;;;;;;;;;;6220902;23;20005;-94
2022/03/18 00:05:27;;;;;;;27.30;17.25;;;;;;;;;;6221122;23;20368;-96
2022/03/18 00:11:28;;;;;;;27.90;17.65;;;;;;;;;;6222650;23;20012;-94
2022/03/18 00:13:55;;;;;;;27.08;16.33;;;;;;;;;;6196295;23;20001;-95
2022/03/18 00:16:21;;;;;;;28.58;17.67;;;;;;;;;;6222991;23;20120;-93
2022/03/18 00:18:47;;;;;;;86.97;35.75;;;;;;;;;;6222797;23;20004;-95
2022/03/18 00:21:14;;;;;;;158.10;59.20;;;;;;;;;;6195905;23;20004;-94
2022/03/18 00:23:40;;;;;;;123.45;52.95;;;;;;;;;;6222706;23;20040;-95
2022/03/18 00:26:06;;;;;;;82.68;36.75;;;;;;;;;;6197082;23;20007;-93
2022/03/18 00:28:32;;;;;;;47.75;25.10;;;;;;;;;;6222683;23;20005;-95
2022/03/18 00:30:58;;;;;;;33.65;20.63;;;;;;;;;;6222843;23;20001;-93
2022/03/18 00:33:25;;;;;;;29.50;19.17;;;;;;;;;;6196142;23;20091;-94
2022/03/18 00:35:51;;;;;;;30.23;19.23;;;;;;;;;;6222800;23;20024;-94
2022/03/18 00:38:45;;;;;;;31.23;18.20;;;;;;;;;;6222832;23;20304;-93
2022/03/18 00:41:11;;;;;;;25.85;17.33;;;;;;;;;;6222144;23;20043;-93
2022/03/18 00:43:39;;;;;;;25.70;17.08;;;;;;;;;;6196018;23;20017;-94
2022/03/18 00:46:06;;;;;;;27.15;16.80;;;;;;;;;;6222875;23;20012;-93
2022/03/18 00:54:20;;;;;;;24.17;16.73;;;;;;;;;;6222551;23;20398;-94
2022/03/18 00:56:46;;;;;;;30.25;18.48;;;;;;;;;;6222169;23;20087;-95
2022/03/18 00:59:12;;;;;;;25.77;18.00;;;;;;;;;;6222646;23;20004;-94
2022/03/18 01:01:38;;;;;;;24.33;16.73;;;;;;;;;;6222415;23;20008;-95
2022/03/18 01:04:04;;;;;;;27.38;17.95;;;;;;;;;;6222159;23;20042;-94
2022/03/18 01:06:31;;;;;;;23.90;17.52;;;;;;;;;;6222764;23;19996;-93
2022/03/18 01:08:57;;;;;;;24.50;17.58;;;;;;;;;;6222453;23;20010;-93
2022/03/18 01:11:23;;;;;;;24.95;18.13;;;;;;;;;;6195907;23;20383;-94
2022/03/18 01:13:49;;;;;;;25.33;17.50;;;;;;;;;;6222671;23;20012;-94
2022/03/18 01:16:16;;;;;;;26.15;17.15;;;;;;;;;;6224535;23;20020;-94
2022/03/18 01:18:42;;;;;;;22.50;16.30;;;;;;;;;;6223132;23;20005;-95
2022/03/18 01:21:08;;;;;;;30.10;16.58;;;;;;;;;;6222315;23;20007;-94
2022/03/18 01:23:53;;;;;;;23.85;17.02;;;;;;;;;;6222234;23;19997;-93
2022/03/18 01:26:19;;;;;;;25.42;16.30;;;;;;;;;;6222545;23;20064;-95
2022/03/18 01:28:45;;;;;;;25.20;15.80;;;;;;;;;;6195398;23;20008;-95
2022/03/18 01:31:11;;;;;;;24.42;16.40;;;;;;;;;;6221676;23;20054;-94
2022/03/18 01:33:37;;;;;;;26.02;17.35;;;;;;;;;;6221824;23;20004;-96
2022/03/18 01:36:04;;;;;;;26.00;17.83;;;;;;;;;;6222188;23;20008;-95
2022/03/18 01:41:34;;;;;;;24.02;16.70;;;;;;;;;;6221381;23;20284;-94
2022/03/18 01:44:00;;;;;;;22.23;15.43;;;;;;;;;;6221779;23;20000;-95
2022/03/18 01:46:26;;;;;;;19.33;14.93;;;;;;;;;;6221804;23;20092;-94
2022/03/18 01:48:52;;;;;;;24.77;15.20;;;;;;;;;;6195940;23;20000;-96
2022/03/18 01:51:19;;;;;;;20.10;13.27;;;;;;;;;;6221694;23;20311;-96
2022/03/18 01:56:50;;;;;;;21.85;14.10;;;;;;;;;;6221595;23;20271;-94
2022/03/18 01:59:16;;;;;;;20.90;12.73;;;;;;;;;;6221652;23;20371;-94
2022/03/18 02:01:42;;;;;;;22.38;12.75;;;;;;;;;;6221609;23;20000;-93
2022/03/18 02:04:10;;;;;;;18.60;12.32;;;;;;;;;;6222092;23;20039;-93
2022/03/18 02:06:36;;;;;;;18.48;12.48;;;;;;;;;;6221735;23;20055;-93
2022/03/18 02:12:07;;;;;;;24.38;13.43;;;;;;;;;;6221720;23;20011;-93
2022/03/18 02:14:33;;;;;;;20.30;13.27;;;;;;;;;;6195301;23;20016;-92
2022/03/18 02:16:59;;;;;;;17.63;11.63;;;;;;;;;;6221638;23;20001;-94
2022/03/18 02:19:26;;;;;;;20.85;11.90;;;;;;;;;;6196037;23;20004;-96
2022/03/18 02:21:53;;;;;;;18.05;12.15;;;;;;;;;;6196092;23;20012;-94
2022/03/18 02:24:57;;;;;;;32.28;16.77;;;;;;;;;;6195302;23;20091;-95
2022/03/18 02:27:23;;;;;;;34.38;17.70;;;;;;;;;;6221187;23;20005;-94
2022/03/18 02:29:49;;;;;;;30.60;16.88;;;;;;;;;;6221055;23;20359;-93
2022/03/18 02:32:18;;;;;;;25.42;15.00;;;;;;;;;;6221633;23;20063;-94
2022/03/18 02:34:44;;;;;;;21.63;13.90;;;;;;;;;;6221260;23;20024;-94
2022/03/18 02:37:10;;;;;;;23.38;14.07;;;;;;;;;;6221679;23;20016;-94
2022/03/18 02:46:10;;;;;;;20.33;12.13;;;;;;;;;;6221323;23;20039;-93
2022/03/18 02:48:37;;;;;;;17.65;12.07;;;;;;;;;;6221266;23;20012;-94
2022/03/18 02:51:03;;;;;;;17.83;12.18;;;;;;;;;;6221623;23;20229;-93
2022/03/18 02:56:52;;;;;;;19.05;12.52;;;;;;;;;;6221344;23;20084;-94
2022/03/18 02:59:18;;;;;;;20.67;12.23;;;;;;;;;;6221042;23;19993;-95
2022/03/18 03:01:45;;;;;;;18.95;12.10;;;;;;;;;;6221195;23;20012;-94
2022/03/18 03:04:13;;;;;;;21.95;13.05;;;;;;;;;;6221748;23;20071;-94
2022/03/18 03:12:27;;;;;;;19.48;11.38;;;;;;;;;;6222065;23;20084;-93
2022/03/18 03:14:54;;;;;;;20.55;11.15;;;;;;;;;;6194809;23;20013;-95
2022/03/18 03:17:20;;;;;;;17.48;11.18;;;;;;;;;;6221354;23;20024;-94
2022/03/18 03:19:46;;;;;;;20.88;11.18;;;;;;;;;;6221327;23;20000;-95
2022/03/18 03:22:12;;;;;;;17.20;11.68;;;;;;;;;;6220694;23;20005;-95
2022/03/18 03:27:41;;;;;;;24.83;14.43;;;;;;;;;;6221343;23;20031;-95
2022/03/18 03:30:08;;;;;;;27.02;16.27;;;;;;;;;;6194999;23;20001;-95
2022/03/18 03:32:34;;;;;;;22.58;13.48;;;;;;;;;;6221253;23;20009;-95
2022/03/18 03:35:00;;;;;;;31.15;16.33;;;;;;;;;;6220768;23;20372;-94
2022/03/18 03:37:27;;;;;;;32.10;17.60;;;;;;;;;;6221056;23;20015;-96
2022/03/18 03:42:57;;;;;;;31.00;17.75;;;;;;;;;;6222715;23;20096;-95
2022/03/18 03:45:23;;;;;;;25.98;14.95;;;;;;;;;;6222749;23;20017;-94
2022/03/18 03:47:49;;;;;;;18.08;11.52;;;;;;;;;;6222839;23;20028;-95
2022/03/18 03:50:16;;;;;;;18.67;12.55;;;;;;;;;;6196797;23;20052;-95
2022/03/18 03:52:42;;;;;;;23.88;13.52;;;;;;;;;;6196613;23;20028;-94
2022/03/18 03:55:09;;;;;;;23.45;13.75;;;;;;;;;;6222865;23;20001;-94
2022/03/18 03:57:36;;;;;;;36.40;17.20;;;;;;;;;;6196348;23;20001;-93
2022/03/18 04:00:06;;;;;;;38.70;17.70;;;;;;;;;;6223218;23;20008;-94
2022/03/18 04:02:32;;;;;;;46.00;22.65;;;;;;;;;;6196616;23;20387;-94
2022/03/18 04:04:58;;;;;;;49.00;26.63;;;;;;;;;;6223305;23;20067;-95
2022/03/18 04:07:27;;;;;;;33.13;19.73;;;;;;;;;;6223332;23;19997;-93
2022/03/18 04:09:56;;;;;;;28.00;15.63;;;;;;;;;;6222902;23;20005;-94
2022/03/18 04:12:23;;;;;;;21.02;12.18;;;;;;;;;;6196226;23;20245;-95
2022/03/18 04:14:51;;;;;;;20.50;12.02;;;;;;;;;;6196587;23;20047;-94
2022/03/18 04:17:18;;;;;;;20.25;12.90;;;;;;;;;;6222662;23;19996;-93
2022/03/18 04:19:44;;;;;;;17.52;10.57;;;;;;;;;;6196403;23;20040;-94
2022/03/18 04:22:10;;;;;;;17.42;10.25;;;;;;;;;;6222481;23;20005;-94
2022/03/18 04:27:41;;;;;;;20.33;11.32;;;;;;;;;;6222753;23;20308;-95
2022/03/18 04:30:08;;;;;;;18.55;10.43;;;;;;;;;;6223065;23;20012;-93
2022/03/18 04:32:35;;;;;;;14.10;9.30;;;;;;;;;;6222047;23;20011;-95
2022/03/18 04:35:01;;;;;;;21.60;10.00;;;;;;;;;;6222966;23;20009;-96
2022/03/18 04:37:27;;;;;;;16.75;10.00;;;;;;;;;;6222873;23;20236;-96
2022/03/18 04:39:53;;;;;;;18.73;9.55;;;;;;;;;;6222663;23;20033;-95
2022/03/18 04:42:19;;;;;;;17.10;9.77;;;;;;;;;;6196156;23;20034;-94
2022/03/18 04:44:45;;;;;;;16.83;9.98;;;;;;;;;;6222626;23;20020;-94
2022/03/18 04:47:12;;;;;;;19.30;11.30;;;;;;;;;;6196418;23;20043;-96
2022/03/18 04:49:38;;;;;;;21.95;11.88;;;;;;;;;;6222371;23;20007;-93
2022/03/18 04:52:04;;;;;;;27.80;13.45;;;;;;;;;;6196053;23;20087;-95
2022/03/18 04:54:30;;;;;;;28.38;15.68;;;;;;;;;;6195744;23;20256;-96
2022/03/18 04:57:15;;;;;;;30.15;14.95;;;;;;;;;;6222793;23;20080;-95
2022/03/18 04:59:41;;;;;;;22.33;11.00;;;;;;;;;;6222941;23;20251;-94
2022/03/18 05:02:08;;;;;;;22.50;10.60;;;;;;;;;;6225028;23;20004;-95
2022/03/18 05:04:34;;;;;;;21.30;11.52;;;;;;;;;;6229882;23;20083;-95
2022/03/18 05:07:01;;;;;;;21.88;11.80;;;;;;;;;;6197691;23;20009;-94
2022/03/18 05:12:31;;;;;;;22.63;10.65;;;;;;;;;;6222239;23;20056;-96
2022/03/18 05:14:57;;;;;;;24.77;11.65;;;;;;;;;;6222660;23;20071;-95
2022/03/18 05:17:23;;;;;;;20.95;8.80;;;;;;;;;;6222599;23;20031;-94
2022/03/18 05:19:49;;;;;;;36.10;13.75;;;;;;;;;;6222197;23;20021;-94
2022/03/18 05:22:15;;;;;;;29.45;11.55;;;;;;;;;;6222093;23;20008;-94
2022/03/18 05:28:22;;;;;;;24.52;9.65;;;;;;;;;;6222078;23;20003;-95
2022/03/18 05:30:48;;;;;;;20.23;8.60;;;;;;;;;;6196370;23;20000;-95
2022/03/18 05:33:14;;;;;;;28.88;13.07;;;;;;;;;;6221706;23;19997;-96
2022/03/18 05:35:41;;;;;;;29.30;12.73;;;;;;;;;;6221888;23;20001;-94
2022/03/18 05:44:18;;;;;;;38.95;16.45;;;;;;;;;;6221207;23;20288;-96
2022/03/18 05:46:44;;;;;;;28.00;13.25;;;;;;;;;;6222516;23;20324;-95
2022/03/18 05:49:10;;;;;;;28.45;12.57;;;;;;;;;;6221903;23;20004;-94
2022/03/18 05:51:36;;;;;;;27.88;13.95;;;;;;;;;;6222558;23;20005;-94
2022/03/18 05:57:06;;;;;;;21.42;10.45;;;;;;;;;;6221744;23;20051;-95
2022/03/18 05:59:33;;;;;;;15.75;9.13;;;;;;;;;;6195511;23;20000;-94
2022/03/18 06:02:00;;;;;;;18.13;9.55;;;;;;;;;;6221136;23;20051;-94
2022/03/18 06:04:27;;;;;;;16.20;7.72;;;;;;;;;;6220804;23;20005;-94
2022/03/18 06:06:53;;;;;;;12.63;7.30;;;;;;;;;;6221240;23;20004;-94
2022/03/18 06:12:06;;;;;;;13.73;7.95;;;;;;;;;;6221723;23;20051;-93
2022/03/18 06:14:32;;;;;;;15.98;7.05;;;;;;;;;;6195391;23;20331;-93
2022/03/18 06:16:59;;;;;;;16.13;9.20;;;;;;;;;;6221880;23;20008;-94
2022/03/18 06:19:27;;;;;;;12.73;7.68;;;;;;;;;;6195224;23;20009;-94
2022/03/18 06:21:53;;;;;;;11.98;6.43;;;;;;;;;;6221330;23;20001;-94
2022/03/18 06:24:20;;;;;;;12.77;6.43;;;;;;;;;;6221477;23;20028;-96
2022/03/18 06:26:47;;;;;;;15.52;6.95;;;;;;;;;;6221825;23;20000;-95
2022/03/18 06:29:13;;;;;;;11.23;7.22;;;;;;;;;;6221818;23;20059;-95
2022/03/18 06:31:40;;;;;;;17.40;9.55;;;;;;;;;;6221917;23;20001;-94
2022/03/18 06:34:06;;;;;;;19.13;8.38;;;;;;;;;;6221575;23;20004;-94
2022/03/18 06:36:33;;;;;;;14.90;7.43;;;;;;;;;;6221574;23;20298;-95
2022/03/18 06:42:04;;;;;;;13.98;7.07;;;;;;;;;;6221569;23;20038;-95
2022/03/18 06:44:31;;;;;;;9.77;6.38;;;;;;;;;;6221406;23;20323;-95
2022/03/18 06:46:57;;;;;;;11.90;6.38;;;;;;;;;;6221216;23;20398;-95
2022/03/18 06:49:23;;;;;;;14.15;7.38;;;;;;;;;;6222210;23;20252;-96
2022/03/18 06:51:49;;;;;;;19.10;7.93;;;;;;;;;;6222499;23;20004;-95
2022/03/18 06:54:15;;;;;;;12.32;6.68;;;;;;;;;;6221484;23;20005;-95
2022/03/18 06:56:41;;;;;;;14.70;6.90;;;;;;;;;;6223265;23;20008;-93
2022/03/18 06:59:07;;;;;;;13.77;7.13;;;;;;;;;;6195708;23;20001;-95
2022/03/18 07:01:34;;;;;;;11.40;6.40;;;;;;;;;;6221401;23;20008;-95
2022/03/18 07:04:00;;;;;;;15.30;8.27;;;;;;;;;;6221165;23;20007;-94
2022/03/18 07:06:27;;;;;;;13.73;6.68;;;;;;;;;;6220685;23;20374;-94
2022/03/18 07:12:12;;;;;;;11.55;7.03;;;;;;;;;;6221173;23;20092;-95
2022/03/18 07:14:38;;;;;;;15.82;6.57;;;;;;;;;;6220927;23;20047;-94
2022/03/18 07:19:51;;;;;;;13.80;6.32;;;;;;;;;;6221303;23;20039;-95
2022/03/18 07:22:17;;;;;;;12.70;6.60;;;;;;;;;;6194626;23;20004;-95
2022/03/18 07:25:02;;;;;;;15.00;5.95;;;;;;;;;;6220675;23;20158;-95
2022/03/18 07:27:28;;;;;;;9.63;5.60;;;;;;;;;;6220982;23;20360;-95
2022/03/18 07:29:54;;;;;;;13.35;6.03;;;;;;;;;;6221627;23;20005;-96
2022/03/18 07:32:20;;;;;;;13.05;6.03;;;;;;;;;;6220950;23;19997;-95
2022/03/18 07:34:46;;;;;;;11.95;6.55;;;;;;;;;;6222213;23;20025;-95
2022/03/18 07:37:12;;;;;;;12.10;6.20;;;;;;;;;;6220030;23;20048;-94
2022/03/18 07:39:38;;;;;;;9.00;5.75;;;;;;;;;;6220145;23;20032;-95
2022/03/18 07:42:05;;;;;;;11.45;5.88;;;;;;;;;;6220458;23;20009;-95
2022/03/18 07:44:31;;;;;;;10.05;5.68;;;;;;;;;;6220820;23;20127;-95
2022/03/18 07:46:57;;;;;;;13.13;6.15;;;;;;;;;;6220679;23;20001;-94
2022/03/18 07:49:23;;;;;;;14.07;6.72;;;;;;;;;;6220194;23;20007;-94
2022/03/18 07:51:49;;;;;;;11.02;5.90;;;;;;;;;;6220934;23;20021;-96
2022/03/18 07:57:19;;;;;;;13.60;6.85;;;;;;;;;;6219874;23;20003;-94
2022/03/18 07:59:45;;;;;;;13.13;6.20;;;;;;;;;;6220421;23;20011;-96
2022/03/18 08:02:11;;;;;;;12.10;6.30;;;;;;;;;;6221298;23;20035;-96
2022/03/18 08:04:37;;;;;;;17.13;6.57;;;;;;;;;;6220842;23;19997;-94
2022/03/18 08:07:03;;;;;;;12.80;6.28;;;;;;;;;;6220500;23;20009;-95
2022/03/18 08:09:29;;;;;;;13.48;5.82;;;;;;;;;;6220424;23;20005;-95
2022/03/18 08:11:56;;;;;;;13.85;6.45;;;;;;;;;;6193740;23;20013;-94
2022/03/18 08:14:23;;;;;;;9.40;5.78;;;;;;;;;;6220801;23;20004;-94
2022/03/18 08:16:49;;;;;;;16.02;5.88;;;;;;;;;;6221175;23;20008;-95
2022/03/18 08:19:15;;;;;;;22.02;7.25;;;;;;;;;;6220763;23;20005;-94
2022/03/18 08:21:41;;;;;;;10.32;5.47;;;;;;;;;;6220960;23;20275;-95
2022/03/18 08:24:09;;;;;;;10.18;5.90;;;;;;;;;;6220922;23;20022;-95
2022/03/18 08:26:37;;;;;;;9.15;6.30;;;;;;;;;;6220953;23;20001;-94
2022/03/18 08:29:04;;;;;;;11.45;6.38;;;;;;;;;;6195431;23;20083;-95
2022/03/18 08:31:30;;;;;;;11.63;6.25;;;;;;;;;;6222522;23;20105;-95
2022/03/18 08:33:57;;;;;;;12.05;6.47;;;;;;;;;;6222878;23;20008;-95
2022/03/18 08:36:23;;;;;;;10.10;6.10;;;;;;;;;;6222231;23;20008;-95
2022/03/18 08:38:54;;;;;;;10.68;6.50;;;;;;;;;;6222465;23;20402;-95
2022/03/18 08:41:21;;;;;;;12.10;6.35;;;;;;;;;;6223047;23;20020;-94
2022/03/18 08:43:51;;;;;;;10.82;6.43;;;;;;;;;;6222869;23;20031;-95
2022/03/18 08:46:17;;;;;;;25.75;7.75;;;;;;;;;;6222969;23;20303;-92
2022/03/18 08:48:43;;;;;;;11.13;6.25;;;;;;;;;;6196485;23;20000;-92
2022/03/18 08:51:10;;;;;;;11.32;6.43;;;;;;;;;;6222813;23;20012;-93
2022/03/18 08:53:37;;;;;;;14.85;8.30;;;;;;;;;;6222249;23;20435;-95
2022/03/18 08:56:03;;;;;;;12.38;6.80;;;;;;;;;;6222749;23;20237;-93
2022/03/18 08:58:29;;;;;;;13.55;6.75;;;;;;;;;;6196326;23;20008;-94
2022/03/18 09:00:55;;;;;;;11.82;6.45;;;;;;;;;;6221925;23;20007;-94
2022/03/18 09:03:21;;;;;;;15.18;7.93;;;;;;;;;;6222118;23;20348;-93
2022/03/18 09:05:47;;;;;;;13.27;7.40;;;;;;;;;;6222150;23;20352;-94
2022/03/18 09:08:14;;;;;;;12.75;6.50;;;;;;;;;;6222744;23;20008;-93
2022/03/18 09:10:41;;;;;;;14.02;7.05;;;;;;;;;;6221917;23;20360;-93
2022/03/18 09:13:07;;;;;;;21.38;7.35;;;;;;;;;;6221952;23;20367;-93
2022/03/18 09:15:33;;;;;;;12.80;6.50;;;;;;;;;;6221921;23;20012;-93
2022/03/18 09:17:59;;;;;;;15.32;7.35;;;;;;;;;;6221794;23;20005;-94
2022/03/18 09:20:25;;;;;;;16.10;8.27;;;;;;;;;;6222195;23;19996;-95
2022/03/18 09:22:52;;;;;;;13.27;7.25;;;;;;;;;;6222276;23;20015;-92
2022/03/18 09:25:18;;;;;;;10.80;6.18;;;;;;;;;;6221845;23;20001;-94
2022/03/18 09:27:45;;;;;;;11.77;6.80;;;;;;;;;;6222311;23;20046;-93
2022/03/18 09:30:11;;;;;;;17.73;8.02;;;;;;;;;;6221283;23;20001;-93
2022/03/18 09:32:42;;;;;;;18.63;7.93;;;;;;;;;;6221530;23;20024;-93
2022/03/18 09:35:09;;;;;;;10.65;6.53;;;;;;;;;;6195849;23;20143;-92
2022/03/18 09:37:35;;;;;;;14.43;7.43;;;;;;;;;;6222445;23;20011;-92
2022/03/18 09:40:04;;;;;;;26.92;12.85;;;;;;;;;;6222057;23;20027;-92
2022/03/18 09:42:32;;;;;;;17.17;8.55;;;;;;;;;;6222252;23;20008;-94
2022/03/18 09:44:58;;;;;;;13.13;7.40;;;;;;;;;;6220924;23;20383;-93
2022/03/18 09:47:24;;;;;;;12.82;7.85;;;;;;;;;;6195218;23;20016;-93
2022/03/18 09:49:50;;;;;;;13.52;8.48;;;;;;;;;;6195230;23;19997;-93
2022/03/18 09:52:16;;;;;;;19.63;9.90;;;;;;;;;;6220863;23;20000;-94
2022/03/18 09:54:42;;;;;;;17.92;10.73;;;;;;;;;;6220695;23;20024;-93
2022/03/18 09:57:09;;;;;;;11.65;7.03;;;;;;;;;;6220613;23;20026;-92
2022/03/18 09:59:35;;;;;;;13.70;8.15;;;;;;;;;;6194621;23;20268;-93
2022/03/18 10:02:22;;;;;;;15.00;8.48;;;;;;;;;;6221403;23;20356;-93
2022/03/18 10:04:56;;;;;;;15.02;8.77;;;;;;;;;;6221363;23;20268;-93
2022/03/18 10:07:22;;;;;;;15.13;8.80;;;;;;;;;;6169971;23;20091;-93
2022/03/18 10:09:49;;;;;;;12.70;7.72;;;;;;;;;;6221834;23;20004;-93
2022/03/18 10:12:35;;;;;;;11.70;7.22;;;;;;;;;;6222022;23;20028;-93
2022/03/18 10:15:09;;;;;;;13.75;7.25;;;;;;;;;;6195339;23;20040;-94
2022/03/18 10:17:40;;;;;;;10.80;6.97;;;;;;;;;;6221622;23;20009;-94
2022/03/18 10:20:06;;;;;;;13.25;7.30;;;;;;;;;;6222021;23;20051;-93
2022/03/18 10:22:34;;;;;;;16.25;8.45;;;;;;;;;;6221736;23;20001;-95
2022/03/18 10:25:01;;;;;;;14.70;7.40;;;;;;;;;;6221439;23;20367;-93
2022/03/18 10:27:27;;;;;;;17.27;9.05;;;;;;;;;;6195158;23;20004;-92
2022/03/18 10:29:53;;;;;;;25.85;14.98;;;;;;;;;;6221444;23;20001;-94
2022/03/18 10:32:20;;;;;;;13.88;7.32;;;;;;;;;;6221203;23;20004;-92
2022/03/18 10:37:50;;;;;;;11.38;7.50;;;;;;;;;;6221641;23;20059;-94
2022/03/18 10:40:17;;;;;;;22.23;11.88;;;;;;;;;;6194496;23;20004;-93
2022/03/18 10:42:56;;;;;;;12.52;8.32;;;;;;;;;;6195148;23;20059;-92
2022/03/18 10:45:22;;;;;;;17.75;8.35;;;;;;;;;;6195379;23;20008;-90
2022/03/18 10:47:48;;;;;;;14.15;7.13;;;;;;;;;;6221013;23;19996;-92
2022/03/18 10:50:15;;;;;;;13.07;8.32;;;;;;;;;;6221116;23;20008;-93
2022/03/18 10:52:47;;;;;;;13.57;8.25;;;;;;;;;;6220998;23;20021;-92
2022/03/18 10:55:18;;;;;;;13.90;8.45;;;;;;;;;;6221253;23;20024;-92
2022/03/18 10:57:51;;;;;;;16.63;8.00;;;;;;;;;;6221477;23;20004;-92
2022/03/18 11:00:18;;;;;;;14.40;8.02;;;;;;;;;;6221404;23;20012;-92
2022/03/18 11:02:46;;;;;;;12.85;8.10;;;;;;;;;;6194231;23;20009;-92
2022/03/18 11:05:13;;;;;;;16.00;8.32;;;;;;;;;;6194223;23;20007;-93
2022/03/18 11:07:41;;;;;;;15.95;8.27;;;;;;;;;;6194203;23;20004;-91
2022/03/18 11:12:57;;;;;;;17.73;7.90;;;;;;;;;;6221819;23;20386;-92
2022/03/18 11:15:25;;;;;;;12.10;7.78;;;;;;;;;;6194799;23;20032;-91
2022/03/18 11:17:53;;;;;;;13.02;7.35;;;;;;;;;;6221336;23;19997;-91
2022/03/18 11:20:21;;;;;;;22.38;8.77;;;;;;;;;;6220885;23;20004;-91
2022/03/18 11:22:50;;;;;;;21.30;7.95;;;;;;;;;;6221288;23;20001;-91
2022/03/18 11:25:17;;;;;;;13.38;8.15;;;;;;;;;;6220913;23;19997;-92
2022/03/18 11:27:44;;;;;;;14.27;7.95;;;;;;;;;;6220809;23;20001;-93
2022/03/18 11:30:26;;;;;;;16.90;8.80;;;;;;;;;;6220862;23;19997;-92
2022/03/18 11:33:07;;;;;;;16.08;8.40;;;;;;;;;;6194941;23;20321;-90
2022/03/18 11:35:49;;;;;;;13.15;8.85;;;;;;;;;;6221110;23;20005;-94
2022/03/18 11:38:15;;;;;;;16.37;9.57;;;;;;;;;;6220795;23;20051;-94
2022/03/18 11:40:58;;;;;;;16.17;8.63;;;;;;;;;;6220617;23;20253;-93
2022/03/18 11:43:31;;;;;;;15.45;9.30;;;;;;;;;;6194620;23;20272;-94
2022/03/18 11:45:57;;;;;;;;;;;;;;;;;;6195109;23;20360;-93
2022/03/18 11:48:36;;;;;;;21.23;9.68;;;;;;;;;;6220800;23;20247;-93
2022/03/18 11:51:23;;;;;;;13.65;7.85;;;;;;;;;;6219862;23;20007;-93
2022/03/18 11:53:51;;;;;;;17.95;8.73;;;;;;;;;;6193762;23;20372;-93
2022/03/18 11:56:18;;;;;;;13.68;9.07;;;;;;;;;;6220974;23;20000;-94
2022/03/18 11:58:44;;;;;;;20.42;10.20;;;;;;;;;;6221079;23;20005;-93
2022/03/18 12:01:29;;;;;;;15.05;8.73;;;;;;;;;;6221013;23;20263;-94
2022/03/18 12:03:57;;;;;;;13.93;9.13;;;;;;;;;;6196075;23;20005;-92
2022/03/18 12:06:23;;;;;;;12.82;8.30;;;;;;;;;;6222222;23;20004;-93
2022/03/18 12:08:52;;;;;;;16.30;9.80;;;;;;;;;;6221854;23;20293;-93
2022/03/18 12:11:26;;;;;;;14.68;9.50;;;;;;;;;;6196801;23;20013;-94
2022/03/18 12:13:52;;;;;;;16.52;9.15;;;;;;;;;;6223008;23;20005;-94
2022/03/18 12:16:19;;;;;;;17.15;8.95;;;;;;;;;;6223158;23;20020;-94
2022/03/18 12:18:46;;;;;;;17.80;9.10;;;;;;;;;;6196462;23;20009;-95
2022/03/18 12:21:12;;;;;;;16.23;9.15;;;;;;;;;;6222601;23;20005;-96
2022/03/18 12:23:38;;;;;;;17.42;10.57;;;;;;;;;;6196056;23;20016;-95
2022/03/18 12:26:05;;;;;;;14.40;8.95;;;;;;;;;;6222593;23;20012;-93
2022/03/18 12:28:49;;;;;;;16.08;8.65;;;;;;;;;;6223099;23;19997;-94
2022/03/18 12:31:15;;;;;;;12.18;8.60;;;;;;;;;;6221982;23;20071;-95
2022/03/18 12:33:41;;;;;;;20.35;9.82;;;;;;;;;;6223096;23;20005;-95
2022/03/18 12:36:08;;;;;;;16.30;10.35;;;;;;;;;;6222980;23;20009;-94
2022/03/18 12:38:35;;;;;;;16.88;10.13;;;;;;;;;;6227625;23;20083;-93
2022/03/18 12:41:01;;;;;;;16.02;9.30;;;;;;;;;;6224014;23;20021;-95
2022/03/18 12:43:31;;;;;;;17.98;9.40;;;;;;;;;;6222290;23;20003;-94
2022/03/18 12:45:57;;;;;;;18.27;10.23;;;;;;;;;;6222300;23;20012;-94
2022/03/18 12:48:23;;;;;;;19.42;11.88;;;;;;;;;;6222847;23;20004;-94
2022/03/18 12:50:49;;;;;;;19.27;11.02;;;;;;;;;;6196347;23;20039;-95
2022/03/18 12:53:23;;;;;;;15.35;9.55;;;;;;;;;;6196224;23;20088;-94
2022/03/18 12:55:50;;;;;;;15.10;9.07;;;;;;;;;;6222208;23;19997;-95
2022/03/18 12:58:17;;;;;;;13.43;8.48;;;;;;;;;;6222300;23;19997;-94
2022/03/18 13:00:45;;;;;;;13.20;9.10;;;;;;;;;;6222463;23;20001;-93
2022/03/18 13:03:16;;;;;;;12.88;8.48;;;;;;;;;;6195301;23;20036;-94
2022/03/18 13:05:42;;;;;;;14.43;9.77;;;;;;;;;;6222719;23;20000;-92
2022/03/18 13:08:09;;;;;;;16.20;9.80;;;;;;;;;;6222204;23;20001;-93
2022/03/18 13:10:36;;;;;;;16.92;10.98;;;;;;;;;;6222538;23;20001;-95
2022/03/18 13:13:09;;;;;;;21.60;10.07;;;;;;;;;;6196432;23;20055;-94
2022/03/18 13:15:35;;;;;;;19.70;11.48;;;;;;;;;;6195480;23;20451;-93
2022/03/18 13:18:09;;;;;;;25.25;14.90;;;;;;;;;;6222301;23;20008;-94
2022/03/18 13:20:35;;;;;;;25.92;15.90;;;;;;;;;;6222374;23;20079;-95
2022/03/18 13:23:02;;;;;;;17.20;10.82;;;;;;;;;;6195556;23;20008;-96
2022/03/18 13:25:28;;;;;;;15.45;9.57;;;;;;;;;;6195870;23;20084;-95
2022/03/18 13:27:55;;;;;;;14.73;9.55;;;;;;;;;;6222472;23;20024;-96
2022/03/18 13:33:09;;;;;;;18.50;11.18;;;;;;;;;;6222554;23;20414;-92
2022/03/18 13:35:49;;;;;;;13.07;9.77;;;;;;;;;;6194938;23;20107;-94
2022/03/18 13:38:19;;;;;;;14.73;9.43;;;;;;;;;;6223687;23;20001;-95
2022/03/18 13:41:02;;;;;;;21.42;12.20;;;;;;;;;;6228745;23;20005;-94
2022/03/18 13:43:28;;;;;;;20.60;12.27;;;;;;;;;;6195082;23;20012;-94
2022/03/18 13:46:08;;;;;;;15.57;10.98;;;;;;;;;;6194774;23;20048;-96
2022/03/18 13:48:35;;;;;;;18.42;10.65;;;;;;;;;;6220954;23;20000;-94
2022/03/18 13:51:01;;;;;;;19.85;13.15;;;;;;;;;;6221119;23;20008;-95
2022/03/18 13:53:27;;;;;;;20.75;11.20;;;;;;;;;;6220398;23;20011;-96
2022/03/18 13:55:54;;;;;;;21.40;11.95;;;;;;;;;;6221488;23;20027;-95
2022/03/18 13:58:26;;;;;;;40.10;14.30;;;;;;;;;;6221414;23;20393;-96
2022/03/18 14:00:53;;;;;;;18.52;10.02;;;;;;;;;;6222115;23;19996;-95
2022/03/18 14:03:28;;;;;;;22.70;10.70;;;;;;;;;;6221758;23;20005;-96
2022/03/18 14:06:01;;;;;;;16.05;10.38;;;;;;;;;;6195693;23;20377;-95
2022/03/18 14:08:31;;;;;;;14.50;9.90;;;;;;;;;;6221442;23;20003;-96
2022/03/18 14:10:59;;;;;;;16.10;9.60;;;;;;;;;;6221650;23;20003;-95
2022/03/18 14:13:27;;;;;;;15.80;10.52;;;;;;;;;;6221605;23;20000;-96
2022/03/18 14:15:53;;;;;;;16.52;10.63;;;;;;;;;;6221366;23;20004;-96
2022/03/18 14:18:21;;;;;;;18.80;10.15;;;;;;;;;;6222462;23;19996;-96
2022/03/18 14:20:53;;;;;;;18.98;11.27;;;;;;;;;;6222239;23;19997;-95
2022/03/18 14:23:32;;;;;;;18.88;11.07;;;;;;;;;;6195875;23;20011;-94
2022/03/18 14:26:05;;;;;;;17.17;11.50;;;;;;;;;;6221478;23;20008;-96
2022/03/18 14:28:31;;;;;;;18.10;11.38;;;;;;;;;;6222409;23;20067;-95
2022/03/18 14:30:58;;;;;;;16.75;11.00;;;;;;;;;;6202313;23;20021;-94
2022/03/18 14:33:25;;;;;;;15.60;11.13;;;;;;;;;;6206684;23;20088;-95
2022/03/18 14:35:53;;;;;;;15.52;11.13;;;;;;;;;;6198220;23;20423;-95
2022/03/18 14:38:19;;;;;;;17.35;12.00;;;;;;;;;;6195363;23;20000;-96
2022/03/18 14:40:46;;;;;;;16.40;10.68;;;;;;;;;;6195451;23;20001;-94
2022/03/18 14:43:12;;;;;;;20.15;11.07;;;;;;;;;;6195072;23;20004;-95
2022/03/18 14:45:39;;;;;;;35.53;12.18;;;;;;;;;;6195007;23;20245;-96
2022/03/18 14:48:06;;;;;;;17.52;11.60;;;;;;;;;;6195087;23;20267;-95
2022/03/18 14:50:38;;;;;;;17.33;11.35;;;;;;;;;;6194704;23;20024;-96
2022/03/18 14:53:04;;;;;;;16.55;11.30;;;;;;;;;;6195188;23;20019;-95
2022/03/18 14:58:15;;;;;;;17.27;11.75;;;;;;;;;;6221645;23;20405;-96
2022/03/18 15:00:41;;;;;;;18.38;11.65;;;;;;;;;;6225500;23;20071;-96
2022/03/18 15:03:08;;;;;;;20.25;12.15;;;;;;;;;;6221905;23;20360;-95
2022/03/18 15:05:34;;;;;;;21.40;13.05;;;;;;;;;;6194637;23;19996;-96
2022/03/18 15:08:00;;;;;;;20.30;12.60;;;;;;;;;;6221196;23;19997;-96
2022/03/18 15:10:27;;;;;;;20.83;13.55;;;;;;;;;;6221354;23;20291;-95
2022/03/18 15:12:53;;;;;;;21.40;13.55;;;;;;;;;;6220635;23;20016;-96
2022/03/18 15:15:19;;;;;;;22.77;14.95;;;;;;;;;;6221532;23;20007;-94
2022/03/18 15:17:46;;;;;;;22.27;14.73;;;;;;;;;;6220715;23;20005;-94
2022/03/18 15:20:13;;;;;;;26.27;14.13;;;;;;;;;;6222860;23;20005;-95
2022/03/18 15:22:39;;;;;;;22.52;15.50;;;;;;;;;;6221133;23;20004;-96
2022/03/18 15:25:06;;;;;;;26.63;18.42;;;;;;;;;;6221152;23;19997;-94
2022/03/18 15:27:33;;;;;;;26.27;17.45;;;;;;;;;;6194820;23;20051;-95
2022/03/18 15:30:01;;;;;;;22.77;16.48;;;;;;;;;;6194701;23;20371;-95
2022/03/18 15:32:27;;;;;;;24.13;17.73;;;;;;;;;;6221148;23;20024;-96
2022/03/18 15:34:55;;;;;;;24.02;16.50;;;;;;;;;;6194888;23;20127;-96
2022/03/18 15:37:23;;;;;;;30.42;18.48;;;;;;;;;;6221804;23;20004;-96
2022/03/18 15:39:49;;;;;;;30.45;17.70;;;;;;;;;;6224445;23;20072;-96
2022/03/18 15:42:16;;;;;;;24.23;16.10;;;;;;;;;;6224157;23;20009;-96
2022/03/18 15:44:42;;;;;;;22.73;16.60;;;;;;;;;;6197824;22;20012;-95
2022/03/18 15:47:09;;;;;;;31.38;18.95;;;;;;;;;;6224327;23;20012;-96
2022/03/18 15:49:36;;;;;;;23.92;16.42;;;;;;;;;;6198331;23;20051;-96
2022/03/18 15:52:11;;;;;;;22.23;14.73;;;;;;;;;;6224650;23;20013;-96